sensor_id;sensor_type;location;lat;lon;timestamp;P1;durP1;ratioP1;P2;durP2;ratioP2
52414;SDS011;38340;52.964;6.086;2022-11-15T00:00:17;27.40;;;18.73;;
52414;SDS011;38340;52.964;6.086;2022-11-15T00:02:43;29.08;;;18.70;;
52414;SDS011;38340;52.964;6.086;2022-11-15T00:05:08;28.77;;;19.00;;
52414;SDS011;38340;52.964;6.086;2022-11-15T00:07:34;32.00;;;20.20;;
52414;SDS011;38340;52.964;6.086;2022-11-15T00:10:00;26.17;;;17.70;;
52414;SDS011;38340;52.964;6.086;2022-11-15T00:12:26;28.05;;;18.42;;
52414;SDS011;38340;52.964;6.086;2022-11-15T00:14:53;30.38;;;19.30;;
52414;SDS011;38340;52.964;6.086;2022-11-15T00:17:19;28.10;;;17.38;;
52414;SDS011;38340;52.964;6.086;2022-11-15T00:19:44;30.02;;;20.05;;
52414;SDS011;38340;52.964;6.086;2022-11-15T00:22:10;27.35;;;19.10;;
52414;SDS011;38340;52.964;6.086;2022-11-15T00:24:36;29.52;;;19.45;;
52414;SDS011;38340;52.964;6.086;2022-11-15T00:27:02;27.13;;;18.45;;
52414;SDS011;38340;52.964;6.086;2022-11-15T00:29:27;27.00;;;18.30;;
52414;SDS011;38340;52.964;6.086;2022-11-15T00:31:53;32.63;;;20.33;;
52414;SDS011;38340;52.964;6.086;2022-11-15T00:34:19;31.35;;;19.75;;
52414;SDS011;38340;52.964;6.086;2022-11-15T00:36:44;30.20;;;20.25;;
52414;SDS011;38340;52.964;6.086;2022-11-15T00:39:10;29.65;;;19.75;;
52414;SDS011;38340;52.964;6.086;2022-11-15T00:41:35;29.33;;;19.83;;
52414;SDS011;38340;52.964;6.086;2022-11-15T00:44:01;28.50;;;19.77;;
52414;SDS011;38340;52.964;6.086;2022-11-15T00:46:27;30.60;;;20.60;;
52414;SDS011;38340;52.964;6.086;2022-11-15T00:48:53;29.92;;;20.50;;
52414;SDS011;38340;52.964;6.086;2022-11-15T00:51:18;36.55;;;21.17;;
52414;SDS011;38340;52.964;6.086;2022-11-15T00:53:44;30.65;;;21.23;;
52414;SDS011;38340;52.964;6.086;2022-11-15T00:56:10;32.20;;;21.73;;
52414;SDS011;38340;52.964;6.086;2022-11-15T00:58:35;30.73;;;21.65;;
52414;SDS011;38340;52.964;6.086;2022-11-15T01:01:08;34.63;;;21.80;;
52414;SDS011;38340;52.964;6.086;2022-11-15T01:03:35;32.10;;;20.35;;
52414;SDS011;38340;52.964;6.086;2022-11-15T01:06:02;31.77;;;20.58;;
52414;SDS011;38340;52.964;6.086;2022-11-15T01:08:28;33.55;;;21.05;;
52414;SDS011;38340;52.964;6.086;2022-11-15T01:10:53;37.30;;;21.13;;
52414;SDS011;38340;52.964;6.086;2022-11-15T01:13:19;31.05;;;21.10;;
52414;SDS011;38340;52.964;6.086;2022-11-15T01:15:45;34.38;;;20.63;;
52414;SDS011;38340;52.964;6.086;2022-11-15T01:18:10;32.25;;;19.48;;
52414;SDS011;38340;52.964;6.086;2022-11-15T01:20:40;34.10;;;20.95;;
52414;SDS011;38340;52.964;6.086;2022-11-15T01:23:07;30.73;;;19.58;;
52414;SDS011;38340;52.964;6.086;2022-11-15T01:25:32;33.63;;;20.42;;
52414;SDS011;38340;52.964;6.086;2022-11-15T01:27:58;29.85;;;19.42;;
52414;SDS011;38340;52.964;6.086;2022-11-15T01:30:23;36.80;;;21.10;;
52414;SDS011;38340;52.964;6.086;2022-11-15T01:32:49;32.17;;;20.55;;
52414;SDS011;38340;52.964;6.086;2022-11-15T01:35:15;32.83;;;20.35;;
52414;SDS011;38340;52.964;6.086;2022-11-15T01:37:41;33.13;;;21.17;;
52414;SDS011;38340;52.964;6.086;2022-11-15T01:40:07;33.55;;;20.35;;
52414;SDS011;38340;52.964;6.086;2022-11-15T01:42:33;33.40;;;19.05;;
52414;SDS011;38340;52.964;6.086;2022-11-15T01:44:59;32.30;;;19.45;;
52414;SDS011;38340;52.964;6.086;2022-11-15T01:47:28;30.10;;;19.05;;
52414;SDS011;38340;52.964;6.086;2022-11-15T01:52:26;31.10;;;17.95;;
52414;SDS011;38340;52.964;6.086;2022-11-15T01:55:11;28.90;;;17.75;;
52414;SDS011;38340;52.964;6.086;2022-11-15T01:57:43;28.60;;;18.05;;
52414;SDS011;38340;52.964;6.086;2022-11-15T02:00:11;28.92;;;19.63;;
52414;SDS011;38340;52.964;6.086;2022-11-15T02:02:37;31.85;;;19.20;;
52414;SDS011;38340;52.964;6.086;2022-11-15T02:05:04;32.33;;;18.48;;
52414;SDS011;38340;52.964;6.086;2022-11-15T02:07:30;33.55;;;19.75;;
52414;SDS011;38340;52.964;6.086;2022-11-15T02:09:59;33.33;;;19.23;;
52414;SDS011;38340;52.964;6.086;2022-11-15T02:12:38;28.15;;;18.60;;
52414;SDS011;38340;52.964;6.086;2022-11-15T02:15:04;32.50;;;19.20;;
52414;SDS011;38340;52.964;6.086;2022-11-15T02:28:48;36.15;;;20.05;;
52414;SDS011;38340;52.964;6.086;2022-11-15T02:45:27;35.75;;;21.02;;
52414;SDS011;38340;52.964;6.086;2022-11-15T02:47:56;39.13;;;20.42;;
52414;SDS011;38340;52.964;6.086;2022-11-15T02:50:25;40.70;;;22.42;;
52414;SDS011;38340;52.964;6.086;2022-11-15T02:52:53;41.60;;;22.25;;
52414;SDS011;38340;52.964;6.086;2022-11-15T03:00:39;37.70;;;20.08;;
52414;SDS011;38340;52.964;6.086;2022-11-15T03:03:22;39.88;;;21.98;;
52414;SDS011;38340;52.964;6.086;2022-11-15T03:08:57;38.63;;;22.83;;
52414;SDS011;38340;52.964;6.086;2022-11-15T03:13:53;41.05;;;22.40;;
52414;SDS011;38340;52.964;6.086;2022-11-15T03:18:58;44.03;;;22.48;;
52414;SDS011;38340;52.964;6.086;2022-11-15T03:21:31;46.25;;;23.45;;
52414;SDS011;38340;52.964;6.086;2022-11-15T03:24:00;43.88;;;22.77;;
52414;SDS011;38340;52.964;6.086;2022-11-15T03:26:29;45.22;;;24.17;;
52414;SDS011;38340;52.964;6.086;2022-11-15T03:28:57;50.05;;;24.05;;
52414;SDS011;38340;52.964;6.086;2022-11-15T03:31:30;44.42;;;22.58;;
52414;SDS011;38340;52.964;6.086;2022-11-15T03:34:12;50.50;;;23.15;;
52414;SDS011;38340;52.964;6.086;2022-11-15T03:36:43;47.72;;;23.40;;
52414;SDS011;38340;52.964;6.086;2022-11-15T03:39:10;49.88;;;23.60;;
52414;SDS011;38340;52.964;6.086;2022-11-15T03:41:39;49.15;;;24.35;;
52414;SDS011;38340;52.964;6.086;2022-11-15T03:44:20;51.33;;;25.48;;
52414;SDS011;38340;52.964;6.086;2022-11-15T03:47:07;49.53;;;25.23;;
52414;SDS011;38340;52.964;6.086;2022-11-15T03:49:49;56.33;;;24.73;;
52414;SDS011;38340;52.964;6.086;2022-11-15T03:52:22;50.70;;;24.35;;
52414;SDS011;38340;52.964;6.086;2022-11-15T03:54:55;49.05;;;24.10;;
52414;SDS011;38340;52.964;6.086;2022-11-15T03:57:21;56.42;;;25.60;;
52414;SDS011;38340;52.964;6.086;2022-11-15T03:59:47;53.75;;;25.80;;
52414;SDS011;38340;52.964;6.086;2022-11-15T04:02:13;46.88;;;24.40;;
52414;SDS011;38340;52.964;6.086;2022-11-15T04:04:39;47.90;;;23.35;;
52414;SDS011;38340;52.964;6.086;2022-11-15T04:07:05;49.85;;;24.30;;
52414;SDS011;38340;52.964;6.086;2022-11-15T04:09:31;43.92;;;22.83;;
52414;SDS011;38340;52.964;6.086;2022-11-15T04:11:56;48.95;;;23.95;;
52414;SDS011;38340;52.964;6.086;2022-11-15T04:14:22;46.28;;;23.77;;
52414;SDS011;38340;52.964;6.086;2022-11-15T04:16:48;39.92;;;22.77;;
52414;SDS011;38340;52.964;6.086;2022-11-15T04:19:13;51.70;;;23.88;;
52414;SDS011;38340;52.964;6.086;2022-11-15T04:21:57;47.90;;;24.33;;
52414;SDS011;38340;52.964;6.086;2022-11-15T04:24:41;49.45;;;24.98;;
52414;SDS011;38340;52.964;6.086;2022-11-15T04:27:07;52.38;;;25.05;;
52414;SDS011;38340;52.964;6.086;2022-11-15T04:29:32;42.17;;;23.33;;
52414;SDS011;38340;52.964;6.086;2022-11-15T04:32:05;62.38;;;26.90;;
52414;SDS011;38340;52.964;6.086;2022-11-15T04:34:32;359.63;;;49.95;;
52414;SDS011;38340;52.964;6.086;2022-11-15T04:36:58;140.30;;;32.40;;
52414;SDS011;38340;52.964;6.086;2022-11-15T04:39:40;51.90;;;26.42;;
52414;SDS011;38340;52.964;6.086;2022-11-15T04:42:06;76.10;;;27.48;;
52414;SDS011;38340;52.964;6.086;2022-11-15T04:44:32;77.28;;;28.13;;
52414;SDS011;38340;52.964;6.086;2022-11-15T04:46:58;74.85;;;28.75;;
52414;SDS011;38340;52.964;6.086;2022-11-15T04:49:23;259.80;;;45.55;;
52414;SDS011;38340;52.964;6.086;2022-11-15T04:51:49;148.93;;;34.88;;
52414;SDS011;38340;52.964;6.086;2022-11-15T04:54:15;128.82;;;36.72;;
52414;SDS011;38340;52.964;6.086;2022-11-15T04:56:40;174.45;;;40.45;;
52414;SDS011;38340;52.964;6.086;2022-11-15T04:59:06;64.80;;;29.52;;
52414;SDS011;38340;52.964;6.086;2022-11-15T05:01:32;99.47;;;30.35;;
52414;SDS011;38340;52.964;6.086;2022-11-15T05:03:57;141.15;;;37.08;;
52414;SDS011;38340;52.964;6.086;2022-11-15T05:06:41;231.30;;;43.97;;
52414;SDS011;38340;52.964;6.086;2022-11-15T05:09:07;65.60;;;28.95;;
52414;SDS011;38340;52.964;6.086;2022-11-15T05:11:33;95.72;;;32.35;;
52414;SDS011;38340;52.964;6.086;2022-11-15T05:13:58;94.97;;;32.00;;
52414;SDS011;38340;52.964;6.086;2022-11-15T05:16:24;97.22;;;31.52;;
52414;SDS011;38340;52.964;6.086;2022-11-15T05:18:50;65.03;;;30.40;;
52414;SDS011;38340;52.964;6.086;2022-11-15T05:21:17;73.35;;;32.90;;
52414;SDS011;38340;52.964;6.086;2022-11-15T05:23:43;70.00;;;31.90;;
52414;SDS011;38340;52.964;6.086;2022-11-15T05:26:08;89.88;;;34.65;;
52414;SDS011;38340;52.964;6.086;2022-11-15T05:28:35;74.57;;;34.13;;
52414;SDS011;38340;52.964;6.086;2022-11-15T05:31:02;67.82;;;32.50;;
52414;SDS011;38340;52.964;6.086;2022-11-15T05:33:29;112.47;;;36.47;;
52414;SDS011;38340;52.964;6.086;2022-11-15T05:35:56;197.73;;;52.38;;
52414;SDS011;38340;52.964;6.086;2022-11-15T05:38:26;75.63;;;34.38;;
52414;SDS011;38340;52.964;6.086;2022-11-15T05:40:51;267.63;;;50.25;;
52414;SDS011;38340;52.964;6.086;2022-11-15T05:43:17;94.43;;;36.40;;
52414;SDS011;38340;52.964;6.086;2022-11-15T05:45:43;85.15;;;35.83;;
52414;SDS011;38340;52.964;6.086;2022-11-15T05:48:08;137.25;;;39.55;;
52414;SDS011;38340;52.964;6.086;2022-11-15T05:50:36;133.45;;;38.97;;
52414;SDS011;38340;52.964;6.086;2022-11-15T05:53:03;135.02;;;39.60;;
52414;SDS011;38340;52.964;6.086;2022-11-15T05:55:29;110.43;;;36.13;;
52414;SDS011;38340;52.964;6.086;2022-11-15T05:57:56;73.55;;;34.10;;
52414;SDS011;38340;52.964;6.086;2022-11-15T06:00:21;75.35;;;34.67;;
52414;SDS011;38340;52.964;6.086;2022-11-15T06:02:47;71.65;;;33.08;;
52414;SDS011;38340;52.964;6.086;2022-11-15T06:05:13;79.57;;;36.03;;
52414;SDS011;38340;52.964;6.086;2022-11-15T06:07:38;74.25;;;35.42;;
52414;SDS011;38340;52.964;6.086;2022-11-15T06:10:04;124.47;;;40.80;;
52414;SDS011;38340;52.964;6.086;2022-11-15T06:12:30;83.32;;;34.60;;
52414;SDS011;38340;52.964;6.086;2022-11-15T06:14:56;197.13;;;46.38;;
52414;SDS011;38340;52.964;6.086;2022-11-15T06:17:21;74.97;;;34.92;;
52414;SDS011;38340;52.964;6.086;2022-11-15T06:19:47;76.55;;;35.42;;
52414;SDS011;38340;52.964;6.086;2022-11-15T06:22:13;73.80;;;35.70;;
52414;SDS011;38340;52.964;6.086;2022-11-15T06:24:39;70.85;;;33.45;;
52414;SDS011;38340;52.964;6.086;2022-11-15T06:27:04;284.73;;;50.17;;
52414;SDS011;38340;52.964;6.086;2022-11-15T06:29:30;75.50;;;33.85;;
52414;SDS011;38340;52.964;6.086;2022-11-15T06:31:56;72.63;;;34.38;;
52414;SDS011;38340;52.964;6.086;2022-11-15T06:34:21;65.78;;;33.22;;
52414;SDS011;38340;52.964;6.086;2022-11-15T06:36:47;110.22;;;38.13;;
52414;SDS011;38340;52.964;6.086;2022-11-15T06:39:13;69.35;;;34.03;;
52414;SDS011;38340;52.964;6.086;2022-11-15T06:41:38;65.85;;;33.17;;
52414;SDS011;38340;52.964;6.086;2022-11-15T06:44:04;58.03;;;32.08;;
52414;SDS011;38340;52.964;6.086;2022-11-15T06:46:29;67.28;;;34.28;;
52414;SDS011;38340;52.964;6.086;2022-11-15T06:48:55;65.05;;;33.60;;
52414;SDS011;38340;52.964;6.086;2022-11-15T06:51:21;61.63;;;31.45;;
52414;SDS011;38340;52.964;6.086;2022-11-15T06:53:46;69.03;;;33.67;;
52414;SDS011;38340;52.964;6.086;2022-11-15T06:56:12;98.32;;;35.22;;
52414;SDS011;38340;52.964;6.086;2022-11-15T06:58:38;75.90;;;34.00;;
52414;SDS011;38340;52.964;6.086;2022-11-15T07:01:05;59.88;;;31.40;;
52414;SDS011;38340;52.964;6.086;2022-11-15T07:03:34;59.80;;;31.20;;
52414;SDS011;38340;52.964;6.086;2022-11-15T07:06:01;59.28;;;30.83;;
52414;SDS011;38340;52.964;6.086;2022-11-15T07:08:27;62.15;;;31.48;;
52414;SDS011;38340;52.964;6.086;2022-11-15T07:10:54;57.22;;;31.40;;
52414;SDS011;38340;52.964;6.086;2022-11-15T07:13:25;55.13;;;30.98;;
52414;SDS011;38340;52.964;6.086;2022-11-15T07:15:51;61.00;;;31.02;;
52414;SDS011;38340;52.964;6.086;2022-11-15T07:18:17;76.90;;;33.22;;
52414;SDS011;38340;52.964;6.086;2022-11-15T07:20:43;61.20;;;31.90;;
52414;SDS011;38340;52.964;6.086;2022-11-15T07:23:09;59.15;;;31.27;;
52414;SDS011;38340;52.964;6.086;2022-11-15T07:25:34;55.63;;;30.50;;
52414;SDS011;38340;52.964;6.086;2022-11-15T07:28:00;55.13;;;29.58;;
52414;SDS011;38340;52.964;6.086;2022-11-15T07:30:26;92.47;;;34.00;;
52414;SDS011;38340;52.964;6.086;2022-11-15T07:32:53;54.35;;;29.50;;
52414;SDS011;38340;52.964;6.086;2022-11-15T07:35:24;57.90;;;30.00;;
52414;SDS011;38340;52.964;6.086;2022-11-15T07:37:57;66.50;;;30.50;;
52414;SDS011;38340;52.964;6.086;2022-11-15T07:40:25;53.95;;;30.13;;
52414;SDS011;38340;52.964;6.086;2022-11-15T07:42:51;60.08;;;29.95;;
52414;SDS011;38340;52.964;6.086;2022-11-15T07:45:21;67.53;;;30.33;;
52414;SDS011;38340;52.964;6.086;2022-11-15T07:47:51;52.00;;;30.65;;
52414;SDS011;38340;52.964;6.086;2022-11-15T07:50:17;47.38;;;29.20;;
52414;SDS011;38340;52.964;6.086;2022-11-15T07:52:43;55.05;;;30.35;;
52414;SDS011;38340;52.964;6.086;2022-11-15T07:55:09;49.88;;;28.73;;
52414;SDS011;38340;52.964;6.086;2022-11-15T07:57:35;72.10;;;31.75;;
52414;SDS011;38340;52.964;6.086;2022-11-15T08:00:01;83.85;;;32.47;;
52414;SDS011;38340;52.964;6.086;2022-11-15T08:02:27;56.83;;;29.08;;
52414;SDS011;38340;52.964;6.086;2022-11-15T08:04:53;49.17;;;28.77;;
52414;SDS011;38340;52.964;6.086;2022-11-15T08:07:18;61.55;;;30.42;;
52414;SDS011;38340;52.964;6.086;2022-11-15T08:09:44;55.67;;;29.35;;
52414;SDS011;38340;52.964;6.086;2022-11-15T08:12:10;73.80;;;30.73;;
52414;SDS011;38340;52.964;6.086;2022-11-15T08:14:35;56.58;;;29.58;;
52414;SDS011;38340;52.964;6.086;2022-11-15T08:17:01;52.42;;;27.85;;
52414;SDS011;38340;52.964;6.086;2022-11-15T08:19:27;45.97;;;28.30;;
52414;SDS011;38340;52.964;6.086;2022-11-15T08:21:52;52.78;;;28.00;;
52414;SDS011;38340;52.964;6.086;2022-11-15T08:24:18;48.05;;;27.23;;
52414;SDS011;38340;52.964;6.086;2022-11-15T08:26:45;91.72;;;31.67;;
52414;SDS011;38340;52.964;6.086;2022-11-15T08:29:11;56.20;;;28.40;;
52414;SDS011;38340;52.964;6.086;2022-11-15T08:31:37;43.20;;;26.13;;
52414;SDS011;38340;52.964;6.086;2022-11-15T08:34:04;43.83;;;26.42;;
52414;SDS011;38340;52.964;6.086;2022-11-15T08:36:30;44.20;;;26.52;;
52414;SDS011;38340;52.964;6.086;2022-11-15T08:38:56;39.42;;;25.73;;
52414;SDS011;38340;52.964;6.086;2022-11-15T08:41:25;44.92;;;25.92;;
52414;SDS011;38340;52.964;6.086;2022-11-15T08:43:55;48.80;;;26.92;;
52414;SDS011;38340;52.964;6.086;2022-11-15T08:46:21;47.92;;;26.80;;
52414;SDS011;38340;52.964;6.086;2022-11-15T08:48:47;64.30;;;26.83;;
52414;SDS011;38340;52.964;6.086;2022-11-15T08:51:13;42.80;;;26.02;;
52414;SDS011;38340;52.964;6.086;2022-11-15T08:53:38;46.40;;;26.67;;
52414;SDS011;38340;52.964;6.086;2022-11-15T08:56:08;43.38;;;25.80;;
52414;SDS011;38340;52.964;6.086;2022-11-15T08:58:37;38.55;;;25.38;;
52414;SDS011;38340;52.964;6.086;2022-11-15T09:01:04;44.17;;;25.15;;
52414;SDS011;38340;52.964;6.086;2022-11-15T09:03:30;43.47;;;23.92;;
52414;SDS011;38340;52.964;6.086;2022-11-15T09:05:56;41.15;;;25.50;;
52414;SDS011;38340;52.964;6.086;2022-11-15T09:08:25;44.17;;;25.67;;
52414;SDS011;38340;52.964;6.086;2022-11-15T09:10:54;42.10;;;26.23;;
52414;SDS011;38340;52.964;6.086;2022-11-15T09:13:21;40.90;;;25.00;;
52414;SDS011;38340;52.964;6.086;2022-11-15T09:15:46;46.08;;;24.63;;
52414;SDS011;38340;52.964;6.086;2022-11-15T09:18:12;36.13;;;24.08;;
52414;SDS011;38340;52.964;6.086;2022-11-15T09:20:38;38.28;;;24.15;;
52414;SDS011;38340;52.964;6.086;2022-11-15T09:23:04;44.42;;;24.52;;
52414;SDS011;38340;52.964;6.086;2022-11-15T09:25:30;34.45;;;23.90;;
52414;SDS011;38340;52.964;6.086;2022-11-15T09:27:56;39.45;;;24.48;;
52414;SDS011;38340;52.964;6.086;2022-11-15T09:30:22;36.25;;;23.10;;
52414;SDS011;38340;52.964;6.086;2022-11-15T09:32:48;33.95;;;23.20;;
52414;SDS011;38340;52.964;6.086;2022-11-15T09:35:14;36.85;;;23.92;;
52414;SDS011;38340;52.964;6.086;2022-11-15T09:37:40;32.60;;;23.00;;
52414;SDS011;38340;52.964;6.086;2022-11-15T09:40:06;37.42;;;23.15;;
52414;SDS011;38340;52.964;6.086;2022-11-15T09:50:20;35.22;;;23.95;;
52414;SDS011;38340;52.964;6.086;2022-11-15T09:52:58;35.20;;;22.52;;
52414;SDS011;38340;52.964;6.086;2022-11-15T09:55:27;37.20;;;21.77;;
52414;SDS011;38340;52.964;6.086;2022-11-15T09:58:01;31.45;;;21.13;;
52414;SDS011;38340;52.964;6.086;2022-11-15T10:00:35;34.38;;;21.58;;
52414;SDS011;38340;52.964;6.086;2022-11-15T10:03:26;31.95;;;21.02;;
52414;SDS011;38340;52.964;6.086;2022-11-15T10:05:57;29.52;;;21.85;;
52414;SDS011;38340;52.964;6.086;2022-11-15T10:11:14;32.80;;;21.17;;
52414;SDS011;38340;52.964;6.086;2022-11-15T10:13:43;28.23;;;20.07;;
52414;SDS011;38340;52.964;6.086;2022-11-15T10:19:13;30.10;;;20.17;;
52414;SDS011;38340;52.964;6.086;2022-11-15T10:24:35;32.92;;;21.45;;
52414;SDS011;38340;52.964;6.086;2022-11-15T10:27:17;29.73;;;19.65;;
52414;SDS011;38340;52.964;6.086;2022-11-15T10:29:44;29.25;;;19.23;;
52414;SDS011;38340;52.964;6.086;2022-11-15T10:32:13;25.73;;;18.98;;
52414;SDS011;38340;52.964;6.086;2022-11-15T10:34:40;28.50;;;19.00;;
52414;SDS011;38340;52.964;6.086;2022-11-15T10:37:06;26.42;;;18.90;;
52414;SDS011;38340;52.964;6.086;2022-11-15T10:39:32;30.58;;;18.77;;
52414;SDS011;38340;52.964;6.086;2022-11-15T10:42:17;26.50;;;18.52;;
52414;SDS011;38340;52.964;6.086;2022-11-15T10:44:53;39.75;;;18.67;;
52414;SDS011;38340;52.964;6.086;2022-11-15T10:47:29;24.90;;;17.05;;
52414;SDS011;38340;52.964;6.086;2022-11-15T10:52:28;23.58;;;16.95;;
52414;SDS011;38340;52.964;6.086;2022-11-15T10:54:56;21.23;;;16.55;;
52414;SDS011;38340;52.964;6.086;2022-11-15T10:57:36;22.75;;;16.40;;
52414;SDS011;38340;52.964;6.086;2022-11-15T11:00:05;25.35;;;15.55;;
52414;SDS011;38340;52.964;6.086;2022-11-15T11:05:26;20.55;;;14.23;;
52414;SDS011;38340;52.964;6.086;2022-11-15T11:11:05;17.08;;;13.10;;
52414;SDS011;38340;52.964;6.086;2022-11-15T11:13:31;17.80;;;11.90;;
52414;SDS011;38340;52.964;6.086;2022-11-15T11:16:02;17.23;;;11.65;;
52414;SDS011;38340;52.964;6.086;2022-11-15T11:18:55;19.45;;;11.52;;
52414;SDS011;38340;52.964;6.086;2022-11-15T11:21:44;13.55;;;10.77;;
52414;SDS011;38340;52.964;6.086;2022-11-15T11:24:33;16.70;;;11.98;;
52414;SDS011;38340;52.964;6.086;2022-11-15T11:35:14;17.35;;;9.52;;
52414;SDS011;38340;52.964;6.086;2022-11-15T11:46:46;15.13;;;9.48;;
52414;SDS011;38340;52.964;6.086;2022-11-15T11:49:32;15.98;;;9.60;;
52414;SDS011;38340;52.964;6.086;2022-11-15T11:52:24;15.93;;;9.60;;
52414;SDS011;38340;52.964;6.086;2022-11-15T12:00:23;12.05;;;8.57;;
52414;SDS011;38340;52.964;6.086;2022-11-15T12:05:40;11.73;;;8.27;;
52414;SDS011;38340;52.964;6.086;2022-11-15T12:11:09;12.20;;;8.13;;
52414;SDS011;38340;52.964;6.086;2022-11-15T12:13:42;11.07;;;7.72;;
52414;SDS011;38340;52.964;6.086;2022-11-15T12:18:51;10.20;;;6.65;;
52414;SDS011;38340;52.964;6.086;2022-11-15T12:24:34;7.85;;;5.63;;
52414;SDS011;38340;52.964;6.086;2022-11-15T12:29:47;7.95;;;5.15;;
52414;SDS011;38340;52.964;6.086;2022-11-15T12:32:21;6.13;;;4.30;;
52414;SDS011;38340;52.964;6.086;2022-11-15T12:34:57;6.57;;;4.72;;
52414;SDS011;38340;52.964;6.086;2022-11-15T12:42:56;6.35;;;4.32;;
52414;SDS011;38340;52.964;6.086;2022-11-15T12:45:29;5.88;;;4.50;;
52414;SDS011;38340;52.964;6.086;2022-11-15T12:58:43;7.88;;;5.00;;
52414;SDS011;38340;52.964;6.086;2022-11-15T13:01:09;7.70;;;5.25;;
52414;SDS011;38340;52.964;6.086;2022-11-15T13:04:38;7.53;;;5.18;;
52414;SDS011;38340;52.964;6.086;2022-11-15T13:11:54;7.97;;;4.90;;
52414;SDS011;38340;52.964;6.086;2022-11-15T13:17:03;5.93;;;4.18;;
52414;SDS011;38340;52.964;6.086;2022-11-15T13:22:43;7.55;;;4.60;;
52414;SDS011;38340;52.964;6.086;2022-11-15T13:33:31;6.88;;;3.65;;
52414;SDS011;38340;52.964;6.086;2022-11-15T13:36:00;6.57;;;3.67;;
52414;SDS011;38340;52.964;6.086;2022-11-15T13:38:30;6.07;;;3.40;;
52414;SDS011;38340;52.964;6.086;2022-11-15T13:40:58;7.68;;;4.05;;
52414;SDS011;38340;52.964;6.086;2022-11-15T13:46:05;8.50;;;3.72;;
52414;SDS011;38340;52.964;6.086;2022-11-15T13:48:32;5.03;;;3.58;;
52414;SDS011;38340;52.964;6.086;2022-11-15T13:50:59;6.47;;;4.25;;
52414;SDS011;38340;52.964;6.086;2022-11-15T13:53:31;7.60;;;4.13;;
52414;SDS011;38340;52.964;6.086;2022-11-15T13:55:58;7.70;;;3.72;;
52414;SDS011;38340;52.964;6.086;2022-11-15T13:58:24;5.47;;;3.65;;
52414;SDS011;38340;52.964;6.086;2022-11-15T14:00:58;6.32;;;3.75;;
52414;SDS011;38340;52.964;6.086;2022-11-15T14:03:30;6.55;;;3.78;;
52414;SDS011;38340;52.964;6.086;2022-11-15T14:06:08;7.18;;;3.55;;
52414;SDS011;38340;52.964;6.086;2022-11-15T14:08:37;6.55;;;3.65;;
52414;SDS011;38340;52.964;6.086;2022-11-15T14:11:15;4.32;;;3.08;;
52414;SDS011;38340;52.964;6.086;2022-11-15T14:16:37;4.35;;;3.55;;
52414;SDS011;38340;52.964;6.086;2022-11-15T14:24:45;3.42;;;3.10;;
52414;SDS011;38340;52.964;6.086;2022-11-15T14:27:31;5.93;;;3.22;;
52414;SDS011;38340;52.964;6.086;2022-11-15T14:29:58;3.90;;;2.92;;
52414;SDS011;38340;52.964;6.086;2022-11-15T14:32:25;6.13;;;3.20;;
52414;SDS011;38340;52.964;6.086;2022-11-15T14:34:58;3.92;;;2.90;;
52414;SDS011;38340;52.964;6.086;2022-11-15T14:37:29;4.00;;;2.78;;
52414;SDS011;38340;52.964;6.086;2022-11-15T14:40:00;5.45;;;2.42;;
52414;SDS011;38340;52.964;6.086;2022-11-15T14:42:26;4.13;;;2.70;;
52414;SDS011;38340;52.964;6.086;2022-11-15T14:44:53;5.15;;;2.55;;
52414;SDS011;38340;52.964;6.086;2022-11-15T14:47:18;4.82;;;2.92;;
52414;SDS011;38340;52.964;6.086;2022-11-15T14:49:44;6.43;;;2.40;;
52414;SDS011;38340;52.964;6.086;2022-11-15T14:52:16;5.65;;;2.40;;
52414;SDS011;38340;52.964;6.086;2022-11-15T14:54:44;11.45;;;2.50;;
52414;SDS011;38340;52.964;6.086;2022-11-15T14:57:10;5.57;;;2.60;;
52414;SDS011;38340;52.964;6.086;2022-11-15T14:59:35;3.95;;;2.28;;
52414;SDS011;38340;52.964;6.086;2022-11-15T15:02:01;2.70;;;2.10;;
52414;SDS011;38340;52.964;6.086;2022-11-15T15:04:27;5.85;;;2.40;;
52414;SDS011;38340;52.964;6.086;2022-11-15T15:06:52;3.63;;;1.83;;
52414;SDS011;38340;52.964;6.086;2022-11-15T15:09:18;6.50;;;2.30;;
52414;SDS011;38340;52.964;6.086;2022-11-15T15:11:44;3.88;;;2.20;;
52414;SDS011;38340;52.964;6.086;2022-11-15T15:14:10;4.22;;;2.72;;
52414;SDS011;38340;52.964;6.086;2022-11-15T15:16:37;5.32;;;2.50;;
52414;SDS011;38340;52.964;6.086;2022-11-15T15:19:03;6.28;;;2.40;;
52414;SDS011;38340;52.964;6.086;2022-11-15T15:21:29;4.45;;;2.13;;
52414;SDS011;38340;52.964;6.086;2022-11-15T15:23:56;3.97;;;2.10;;
52414;SDS011;38340;52.964;6.086;2022-11-15T15:26:25;5.07;;;2.22;;
52414;SDS011;38340;52.964;6.086;2022-11-15T15:28:51;4.35;;;2.25;;
52414;SDS011;38340;52.964;6.086;2022-11-15T15:31:17;7.43;;;2.35;;
52414;SDS011;38340;52.964;6.086;2022-11-15T15:33:43;3.88;;;2.28;;
52414;SDS011;38340;52.964;6.086;2022-11-15T15:36:13;4.95;;;2.70;;
52414;SDS011;38340;52.964;6.086;2022-11-15T15:38:40;5.72;;;2.63;;
52414;SDS011;38340;52.964;6.086;2022-11-15T15:41:12;4.40;;;2.50;;
52414;SDS011;38340;52.964;6.086;2022-11-15T15:43:39;4.95;;;2.65;;
52414;SDS011;38340;52.964;6.086;2022-11-15T15:46:12;5.93;;;3.30;;
52414;SDS011;38340;52.964;6.086;2022-11-15T15:51:10;5.53;;;3.55;;
52414;SDS011;38340;52.964;6.086;2022-11-15T15:53:36;5.53;;;3.40;;
52414;SDS011;38340;52.964;6.086;2022-11-15T15:56:02;6.55;;;3.67;;
52414;SDS011;38340;52.964;6.086;2022-11-15T15:58:28;8.13;;;4.18;;
52414;SDS011;38340;52.964;6.086;2022-11-15T16:00:54;5.43;;;4.00;;
52414;SDS011;38340;52.964;6.086;2022-11-15T16:03:19;6.03;;;3.97;;
52414;SDS011;38340;52.964;6.086;2022-11-15T16:05:45;6.35;;;4.50;;
52414;SDS011;38340;52.964;6.086;2022-11-15T16:08:18;8.95;;;4.70;;
52414;SDS011;38340;52.964;6.086;2022-11-15T16:10:44;7.55;;;4.45;;
52414;SDS011;38340;52.964;6.086;2022-11-15T16:13:11;7.57;;;5.00;;
52414;SDS011;38340;52.964;6.086;2022-11-15T16:15:36;7.97;;;5.10;;
52414;SDS011;38340;52.964;6.086;2022-11-15T16:18:03;7.38;;;5.05;;
52414;SDS011;38340;52.964;6.086;2022-11-15T16:20:33;6.75;;;5.05;;
52414;SDS011;38340;52.964;6.086;2022-11-15T16:23:09;7.07;;;4.85;;
52414;SDS011;38340;52.964;6.086;2022-11-15T16:25:38;7.43;;;4.82;;
52414;SDS011;38340;52.964;6.086;2022-11-15T16:28:31;5.93;;;5.18;;
52414;SDS011;38340;52.964;6.086;2022-11-15T16:31:02;8.07;;;5.07;;
52414;SDS011;38340;52.964;6.086;2022-11-15T16:33:29;7.55;;;4.80;;
52414;SDS011;38340;52.964;6.086;2022-11-15T16:35:55;9.20;;;5.22;;
52414;SDS011;38340;52.964;6.086;2022-11-15T16:38:21;8.63;;;5.30;;
52414;SDS011;38340;52.964;6.086;2022-11-15T16:40:46;9.13;;;5.30;;
52414;SDS011;38340;52.964;6.086;2022-11-15T16:43:12;7.90;;;5.05;;
52414;SDS011;38340;52.964;6.086;2022-11-15T16:45:38;6.97;;;4.65;;
52414;SDS011;38340;52.964;6.086;2022-11-15T16:48:04;11.07;;;4.80;;
52414;SDS011;38340;52.964;6.086;2022-11-15T16:50:31;8.43;;;4.82;;
52414;SDS011;38340;52.964;6.086;2022-11-15T16:53:03;10.05;;;4.25;;
52414;SDS011;38340;52.964;6.086;2022-11-15T16:55:29;7.20;;;4.72;;
52414;SDS011;38340;52.964;6.086;2022-11-15T16:57:55;6.28;;;3.95;;
52414;SDS011;38340;52.964;6.086;2022-11-15T17:00:22;6.78;;;4.00;;
52414;SDS011;38340;52.964;6.086;2022-11-15T17:02:49;7.60;;;4.07;;
52414;SDS011;38340;52.964;6.086;2022-11-15T17:05:17;5.15;;;3.60;;
52414;SDS011;38340;52.964;6.086;2022-11-15T17:07:46;5.95;;;3.35;;